sensor_id;sensor_type;location;lat;lon;timestamp;P1;durP1;ratioP1;P2;durP2;ratioP2
38089;SDS011;23904;52.322;10.232;2023-07-31T00:02:16;4.28;;;1.85;;
38089;SDS011;23904;52.322;10.232;2023-07-31T00:04:42;5.90;;;1.88;;
38089;SDS011;23904;52.322;10.232;2023-07-31T00:07:07;3.70;;;1.65;;
38089;SDS011;23904;52.322;10.232;2023-07-31T00:09:33;2.88;;;1.50;;
38089;SDS011;23904;52.322;10.232;2023-07-31T00:11:59;3.60;;;1.67;;
38089;SDS011;23904;52.322;10.232;2023-07-31T00:14:24;6.75;;;1.98;;
38089;SDS011;23904;52.322;10.232;2023-07-31T00:16:50;6.53;;;1.95;;
38089;SDS011;23904;52.322;10.232;2023-07-31T00:19:16;3.30;;;1.50;;
38089;SDS011;23904;52.322;10.232;2023-07-31T00:21:41;5.43;;;1.48;;
38089;SDS011;23904;52.322;10.232;2023-07-31T00:24:07;5.35;;;1.60;;
38089;SDS011;23904;52.322;10.232;2023-07-31T00:26:32;6.68;;;2.33;;
38089;SDS011;23904;52.322;10.232;2023-07-31T00:28:58;6.07;;;1.80;;
38089;SDS011;23904;52.322;10.232;2023-07-31T00:31:23;6.25;;;1.58;;
38089;SDS011;23904;52.322;10.232;2023-07-31T00:33:49;4.15;;;1.50;;
38089;SDS011;23904;52.322;10.232;2023-07-31T00:36:14;5.35;;;1.73;;
38089;SDS011;23904;52.322;10.232;2023-07-31T00:38:40;6.28;;;1.70;;
38089;SDS011;23904;52.322;10.232;2023-07-31T00:41:06;5.43;;;1.90;;
38089;SDS011;23904;52.322;10.232;2023-07-31T00:43:31;5.07;;;2.25;;
38089;SDS011;23904;52.322;10.232;2023-07-31T00:45:57;4.43;;;1.92;;
38089;SDS011;23904;52.322;10.232;2023-07-31T00:48:22;5.05;;;2.63;;
38089;SDS011;23904;52.322;10.232;2023-07-31T00:50:48;4.45;;;1.58;;
38089;SDS011;23904;52.322;10.232;2023-07-31T00:53:15;6.25;;;2.08;;
38089;SDS011;23904;52.322;10.232;2023-07-31T00:55:40;4.97;;;1.75;;
38089;SDS011;23904;52.322;10.232;2023-07-31T00:58:07;3.47;;;1.50;;
38089;SDS011;23904;52.322;10.232;2023-07-31T01:00:33;4.63;;;1.58;;
38089;SDS011;23904;52.322;10.232;2023-07-31T01:02:58;5.90;;;2.20;;
38089;SDS011;23904;52.322;10.232;2023-07-31T01:05:36;4.47;;;1.73;;
38089;SDS011;23904;52.322;10.232;2023-07-31T01:08:32;6.03;;;2.03;;
38089;SDS011;23904;52.322;10.232;2023-07-31T01:11:07;4.13;;;2.05;;
38089;SDS011;23904;52.322;10.232;2023-07-31T01:13:40;6.18;;;2.05;;
38089;SDS011;23904;52.322;10.232;2023-07-31T01:16:07;5.07;;;1.90;;
38089;SDS011;23904;52.322;10.232;2023-07-31T01:18:33;3.97;;;1.85;;
38089;SDS011;23904;52.322;10.232;2023-07-31T01:21:03;12.50;;;2.00;;
38089;SDS011;23904;52.322;10.232;2023-07-31T01:24:01;7.47;;;1.90;;
38089;SDS011;23904;52.322;10.232;2023-07-31T01:26:47;5.90;;;2.05;;
38089;SDS011;23904;52.322;10.232;2023-07-31T01:32:35;6.18;;;1.75;;
38089;SDS011;23904;52.322;10.232;2023-07-31T01:35:04;5.78;;;1.80;;
38089;SDS011;23904;52.322;10.232;2023-07-31T01:37:31;6.07;;;1.92;;
38089;SDS011;23904;52.322;10.232;2023-07-31T01:39:56;4.80;;;1.70;;
38089;SDS011;23904;52.322;10.232;2023-07-31T01:42:22;9.00;;;2.47;;
38089;SDS011;23904;52.322;10.232;2023-07-31T01:44:48;5.05;;;1.55;;
38089;SDS011;23904;52.322;10.232;2023-07-31T01:47:13;3.80;;;1.70;;
38089;SDS011;23904;52.322;10.232;2023-07-31T01:49:39;5.22;;;1.90;;
38089;SDS011;23904;52.322;10.232;2023-07-31T01:52:05;6.88;;;1.77;;
38089;SDS011;23904;52.322;10.232;2023-07-31T01:54:31;3.70;;;1.50;;
38089;SDS011;23904;52.322;10.232;2023-07-31T01:56:57;7.65;;;2.10;;
38089;SDS011;23904;52.322;10.232;2023-07-31T01:59:23;5.60;;;1.83;;
38089;SDS011;23904;52.322;10.232;2023-07-31T02:01:48;9.05;;;2.70;;
38089;SDS011;23904;52.322;10.232;2023-07-31T02:04:14;7.15;;;1.90;;
38089;SDS011;23904;52.322;10.232;2023-07-31T02:06:39;4.65;;;1.50;;
38089;SDS011;23904;52.322;10.232;2023-07-31T02:09:05;4.28;;;1.67;;
38089;SDS011;23904;52.322;10.232;2023-07-31T02:11:32;7.68;;;1.80;;
38089;SDS011;23904;52.322;10.232;2023-07-31T02:13:57;5.07;;;2.17;;
38089;SDS011;23904;52.322;10.232;2023-07-31T02:16:23;3.65;;;2.00;;
38089;SDS011;23904;52.322;10.232;2023-07-31T02:18:48;6.70;;;1.92;;
38089;SDS011;23904;52.322;10.232;2023-07-31T02:21:14;3.90;;;1.63;;
38089;SDS011;23904;52.322;10.232;2023-07-31T02:23:39;6.38;;;2.30;;
38089;SDS011;23904;52.322;10.232;2023-07-31T02:26:05;4.10;;;1.25;;
38089;SDS011;23904;52.322;10.232;2023-07-31T02:28:30;3.15;;;1.30;;
38089;SDS011;23904;52.322;10.232;2023-07-31T02:30:56;3.53;;;1.05;;
38089;SDS011;23904;52.322;10.232;2023-07-31T02:33:21;4.90;;;1.58;;
38089;SDS011;23904;52.322;10.232;2023-07-31T02:35:47;2.72;;;0.90;;
38089;SDS011;23904;52.322;10.232;2023-07-31T02:38:12;7.20;;;1.73;;
38089;SDS011;23904;52.322;10.232;2023-07-31T02:40:41;2.75;;;1.00;;
38089;SDS011;23904;52.322;10.232;2023-07-31T02:43:07;3.50;;;1.05;;
38089;SDS011;23904;52.322;10.232;2023-07-31T02:45:33;1.70;;;0.98;;
38089;SDS011;23904;52.322;10.232;2023-07-31T02:47:59;3.83;;;1.05;;
38089;SDS011;23904;52.322;10.232;2023-07-31T02:50:25;2.60;;;0.80;;
38089;SDS011;23904;52.322;10.232;2023-07-31T02:52:50;4.72;;;1.10;;
38089;SDS011;23904;52.322;10.232;2023-07-31T02:55:16;4.65;;;1.20;;
38089;SDS011;23904;52.322;10.232;2023-07-31T02:57:41;4.20;;;1.10;;
38089;SDS011;23904;52.322;10.232;2023-07-31T03:00:07;2.25;;;1.08;;
38089;SDS011;23904;52.322;10.232;2023-07-31T03:02:34;3.35;;;1.08;;
38089;SDS011;23904;52.322;10.232;2023-07-31T03:05:00;1.85;;;0.80;;
38089;SDS011;23904;52.322;10.232;2023-07-31T03:07:26;2.75;;;0.95;;
38089;SDS011;23904;52.322;10.232;2023-07-31T03:09:51;2.72;;;1.40;;
38089;SDS011;23904;52.322;10.232;2023-07-31T03:12:17;2.22;;;1.33;;
38089;SDS011;23904;52.322;10.232;2023-07-31T03:14:42;2.33;;;1.13;;
38089;SDS011;23904;52.322;10.232;2023-07-31T03:17:08;4.28;;;1.20;;
38089;SDS011;23904;52.322;10.232;2023-07-31T03:19:33;2.25;;;0.95;;
38089;SDS011;23904;52.322;10.232;2023-07-31T03:21:59;4.95;;;1.10;;
38089;SDS011;23904;52.322;10.232;2023-07-31T03:24:25;5.63;;;1.20;;
38089;SDS011;23904;52.322;10.232;2023-07-31T03:26:51;7.75;;;1.50;;
38089;SDS011;23904;52.322;10.232;2023-07-31T03:29:17;2.95;;;1.25;;
38089;SDS011;23904;52.322;10.232;2023-07-31T03:31:42;3.60;;;1.00;;
38089;SDS011;23904;52.322;10.232;2023-07-31T03:34:08;9.20;;;0.90;;
38089;SDS011;23904;52.322;10.232;2023-07-31T03:36:33;4.95;;;1.23;;
38089;SDS011;23904;52.322;10.232;2023-07-31T03:38:59;2.80;;;1.42;;
38089;SDS011;23904;52.322;10.232;2023-07-31T03:41:24;3.20;;;1.10;;
38089;SDS011;23904;52.322;10.232;2023-07-31T03:43:51;3.33;;;0.98;;
38089;SDS011;23904;52.322;10.232;2023-07-31T03:46:21;4.68;;;1.05;;
38089;SDS011;23904;52.322;10.232;2023-07-31T03:48:48;2.45;;;0.73;;
38089;SDS011;23904;52.322;10.232;2023-07-31T03:51:13;1.92;;;0.90;;
38089;SDS011;23904;52.322;10.232;2023-07-31T03:53:39;4.32;;;1.50;;
38089;SDS011;23904;52.322;10.232;2023-07-31T03:56:05;1.88;;;0.90;;
38089;SDS011;23904;52.322;10.232;2023-07-31T03:58:30;1.75;;;0.90;;
38089;SDS011;23904;52.322;10.232;2023-07-31T04:00:56;3.47;;;0.90;;
38089;SDS011;23904;52.322;10.232;2023-07-31T04:03:21;3.50;;;1.25;;
38089;SDS011;23904;52.322;10.232;2023-07-31T04:05:47;3.72;;;1.13;;
38089;SDS011;23904;52.322;10.232;2023-07-31T04:08:12;6.30;;;1.08;;
38089;SDS011;23904;52.322;10.232;2023-07-31T04:10:38;2.50;;;1.08;;
38089;SDS011;23904;52.322;10.232;2023-07-31T04:13:03;2.15;;;0.90;;
38089;SDS011;23904;52.322;10.232;2023-07-31T04:15:29;4.97;;;1.13;;
38089;SDS011;23904;52.322;10.232;2023-07-31T04:17:55;2.95;;;0.88;;
38089;SDS011;23904;52.322;10.232;2023-07-31T04:20:20;1.92;;;1.00;;
38089;SDS011;23904;52.322;10.232;2023-07-31T04:22:46;2.30;;;1.20;;
38089;SDS011;23904;52.322;10.232;2023-07-31T04:25:11;2.38;;;1.17;;
38089;SDS011;23904;52.322;10.232;2023-07-31T04:27:37;2.60;;;1.05;;
38089;SDS011;23904;52.322;10.232;2023-07-31T04:30:03;4.50;;;1.10;;
38089;SDS011;23904;52.322;10.232;2023-07-31T04:32:30;5.75;;;1.33;;
38089;SDS011;23904;52.322;10.232;2023-07-31T04:34:55;1.38;;;0.90;;
38089;SDS011;23904;52.322;10.232;2023-07-31T04:37:21;1.83;;;1.17;;
38089;SDS011;23904;52.322;10.232;2023-07-31T04:39:47;4.00;;;1.15;;
38089;SDS011;23904;52.322;10.232;2023-07-31T04:42:12;4.25;;;1.52;;
38089;SDS011;23904;52.322;10.232;2023-07-31T04:44:38;2.97;;;0.98;;
38089;SDS011;23904;52.322;10.232;2023-07-31T04:47:03;4.05;;;1.20;;
38089;SDS011;23904;52.322;10.232;2023-07-31T04:49:29;2.35;;;1.00;;
38089;SDS011;23904;52.322;10.232;2023-07-31T04:51:55;5.13;;;0.90;;
38089;SDS011;23904;52.322;10.232;2023-07-31T04:54:20;3.35;;;1.10;;
38089;SDS011;23904;52.322;10.232;2023-07-31T04:56:46;3.70;;;1.23;;
38089;SDS011;23904;52.322;10.232;2023-07-31T04:59:12;6.30;;;1.58;;
38089;SDS011;23904;52.322;10.232;2023-07-31T05:01:38;2.33;;;1.05;;
38089;SDS011;23904;52.322;10.232;2023-07-31T05:04:03;1.73;;;1.17;;
38089;SDS011;23904;52.322;10.232;2023-07-31T05:06:29;7.18;;;1.85;;
38089;SDS011;23904;52.322;10.232;2023-07-31T05:08:54;5.20;;;1.60;;
38089;SDS011;23904;52.322;10.232;2023-07-31T05:11:20;3.85;;;0.90;;
38089;SDS011;23904;52.322;10.232;2023-07-31T05:13:45;3.17;;;1.35;;
38089;SDS011;23904;52.322;10.232;2023-07-31T05:16:11;3.65;;;1.63;;
38089;SDS011;23904;52.322;10.232;2023-07-31T05:18:37;4.45;;;1.40;;
38089;SDS011;23904;52.322;10.232;2023-07-31T05:21:02;3.72;;;1.40;;
38089;SDS011;23904;52.322;10.232;2023-07-31T05:23:28;4.60;;;1.65;;
38089;SDS011;23904;52.322;10.232;2023-07-31T05:25:54;5.35;;;2.25;;
38089;SDS011;23904;52.322;10.232;2023-07-31T05:28:20;4.53;;;1.60;;
38089;SDS011;23904;52.322;10.232;2023-07-31T05:30:46;3.17;;;1.20;;
38089;SDS011;23904;52.322;10.232;2023-07-31T05:33:12;3.75;;;1.63;;
38089;SDS011;23904;52.322;10.232;2023-07-31T05:35:37;6.90;;;1.85;;
38089;SDS011;23904;52.322;10.232;2023-07-31T05:38:03;2.90;;;1.60;;
38089;SDS011;23904;52.322;10.232;2023-07-31T05:40:31;3.63;;;1.27;;
38089;SDS011;23904;52.322;10.232;2023-07-31T05:42:58;4.63;;;2.03;;
38089;SDS011;23904;52.322;10.232;2023-07-31T05:45:24;3.58;;;2.55;;
38089;SDS011;23904;52.322;10.232;2023-07-31T05:47:50;2.45;;;1.33;;
38089;SDS011;23904;52.322;10.232;2023-07-31T05:50:16;2.30;;;1.13;;
38089;SDS011;23904;52.322;10.232;2023-07-31T05:52:41;2.65;;;1.25;;
38089;SDS011;23904;52.322;10.232;2023-07-31T05:55:07;3.10;;;1.33;;
38089;SDS011;23904;52.322;10.232;2023-07-31T05:57:33;3.00;;;1.80;;
38089;SDS011;23904;52.322;10.232;2023-07-31T05:59:58;4.75;;;1.30;;
38089;SDS011;23904;52.322;10.232;2023-07-31T06:02:24;4.78;;;1.75;;
38089;SDS011;23904;52.322;10.232;2023-07-31T06:04:50;5.43;;;1.75;;
38089;SDS011;23904;52.322;10.232;2023-07-31T06:07:15;7.45;;;1.75;;
38089;SDS011;23904;52.322;10.232;2023-07-31T06:09:41;5.35;;;2.92;;
38089;SDS011;23904;52.322;10.232;2023-07-31T06:12:07;5.13;;;2.72;;
38089;SDS011;23904;52.322;10.232;2023-07-31T06:14:33;11.13;;;3.63;;
38089;SDS011;23904;52.322;10.232;2023-07-31T06:16:59;7.50;;;4.57;;
38089;SDS011;23904;52.322;10.232;2023-07-31T06:19:24;20.25;;;6.10;;
38089;SDS011;23904;52.322;10.232;2023-07-31T06:21:50;9.85;;;5.53;;
38089;SDS011;23904;52.322;10.232;2023-07-31T06:24:16;13.63;;;8.23;;
38089;SDS011;23904;52.322;10.232;2023-07-31T06:26:44;12.93;;;8.73;;
38089;SDS011;23904;52.322;10.232;2023-07-31T06:29:09;11.10;;;8.65;;
38089;SDS011;23904;52.322;10.232;2023-07-31T06:31:35;13.50;;;10.30;;
38089;SDS011;23904;52.322;10.232;2023-07-31T06:34:00;20.30;;;10.32;;
38089;SDS011;23904;52.322;10.232;2023-07-31T06:36:26;21.20;;;10.35;;
38089;SDS011;23904;52.322;10.232;2023-07-31T06:38:51;15.40;;;9.13;;
38089;SDS011;23904;52.322;10.232;2023-07-31T06:41:17;15.07;;;9.07;;
38089;SDS011;23904;52.322;10.232;2023-07-31T06:43:43;18.77;;;8.93;;
38089;SDS011;23904;52.322;10.232;2023-07-31T06:46:08;14.90;;;8.18;;
38089;SDS011;23904;52.322;10.232;2023-07-31T06:48:34;12.98;;;7.65;;
38089;SDS011;23904;52.322;10.232;2023-07-31T06:51:01;17.10;;;9.13;;
38089;SDS011;23904;52.322;10.232;2023-07-31T06:53:27;13.38;;;7.97;;
38089;SDS011;23904;52.322;10.232;2023-07-31T06:55:54;14.23;;;8.82;;
38089;SDS011;23904;52.322;10.232;2023-07-31T06:58:19;15.93;;;8.02;;
38089;SDS011;23904;52.322;10.232;2023-07-31T07:00:45;13.90;;;8.48;;
38089;SDS011;23904;52.322;10.232;2023-07-31T07:03:11;17.65;;;9.10;;
38089;SDS011;23904;52.322;10.232;2023-07-31T07:05:36;16.27;;;10.05;;
38089;SDS011;23904;52.322;10.232;2023-07-31T07:08:02;16.27;;;9.75;;
38089;SDS011;23904;52.322;10.232;2023-07-31T07:10:28;19.42;;;10.18;;
38089;SDS011;23904;52.322;10.232;2023-07-31T07:12:54;20.23;;;11.52;;
38089;SDS011;23904;52.322;10.232;2023-07-31T07:15:20;18.70;;;12.20;;
38089;SDS011;23904;52.322;10.232;2023-07-31T07:17:46;20.60;;;12.35;;
38089;SDS011;23904;52.322;10.232;2023-07-31T07:20:11;20.23;;;12.05;;
38089;SDS011;23904;52.322;10.232;2023-07-31T07:22:37;21.00;;;12.38;;
38089;SDS011;23904;52.322;10.232;2023-07-31T07:25:03;17.40;;;13.25;;
38089;SDS011;23904;52.322;10.232;2023-07-31T07:27:30;22.52;;;13.85;;
38089;SDS011;23904;52.322;10.232;2023-07-31T07:29:55;22.50;;;14.38;;
38089;SDS011;23904;52.322;10.232;2023-07-31T07:32:21;23.98;;;14.75;;
38089;SDS011;23904;52.322;10.232;2023-07-31T07:34:47;27.83;;;15.10;;
38089;SDS011;23904;52.322;10.232;2023-07-31T07:37:13;26.55;;;14.32;;
38089;SDS011;23904;52.322;10.232;2023-07-31T07:39:39;25.90;;;14.95;;
38089;SDS011;23904;52.322;10.232;2023-07-31T07:42:06;28.33;;;15.50;;
38089;SDS011;23904;52.322;10.232;2023-07-31T07:44:31;24.20;;;14.18;;
38089;SDS011;23904;52.322;10.232;2023-07-31T07:46:57;25.67;;;15.30;;
38089;SDS011;23904;52.322;10.232;2023-07-31T07:49:23;22.55;;;14.90;;
38089;SDS011;23904;52.322;10.232;2023-07-31T07:51:48;31.67;;;16.23;;
38089;SDS011;23904;52.322;10.232;2023-07-31T07:54:15;34.53;;;15.23;;
38089;SDS011;23904;52.322;10.232;2023-07-31T07:56:46;22.80;;;13.85;;
38089;SDS011;23904;52.322;10.232;2023-07-31T07:59:11;30.55;;;16.83;;
38089;SDS011;23904;52.322;10.232;2023-07-31T08:01:37;28.85;;;15.25;;
38089;SDS011;23904;52.322;10.232;2023-07-31T08:04:02;32.00;;;19.25;;
38089;SDS011;23904;52.322;10.232;2023-07-31T08:06:28;26.55;;;15.00;;
38089;SDS011;23904;52.322;10.232;2023-07-31T08:08:54;24.40;;;14.13;;
38089;SDS011;23904;52.322;10.232;2023-07-31T08:11:20;25.85;;;13.38;;
38089;SDS011;23904;52.322;10.232;2023-07-31T08:13:47;19.00;;;12.45;;
38089;SDS011;23904;52.322;10.232;2023-07-31T08:16:12;22.33;;;10.52;;
38089;SDS011;23904;52.322;10.232;2023-07-31T08:18:38;20.23;;;11.40;;
38089;SDS011;23904;52.322;10.232;2023-07-31T08:21:05;19.80;;;10.80;;
38089;SDS011;23904;52.322;10.232;2023-07-31T08:23:31;20.65;;;10.57;;
38089;SDS011;23904;52.322;10.232;2023-07-31T08:25:56;18.13;;;10.10;;
38089;SDS011;23904;52.322;10.232;2023-07-31T08:28:22;21.27;;;10.35;;
38089;SDS011;23904;52.322;10.232;2023-07-31T08:30:47;21.50;;;9.77;;
38089;SDS011;23904;52.322;10.232;2023-07-31T08:33:13;21.27;;;9.30;;
38089;SDS011;23904;52.322;10.232;2023-07-31T08:35:38;26.17;;;9.98;;
38089;SDS011;23904;52.322;10.232;2023-07-31T08:38:04;20.02;;;10.32;;
38089;SDS011;23904;52.322;10.232;2023-07-31T08:40:29;19.90;;;8.90;;
38089;SDS011;23904;52.322;10.232;2023-07-31T08:42:55;17.65;;;8.38;;
38089;SDS011;23904;52.322;10.232;2023-07-31T08:45:22;15.95;;;9.73;;
38089;SDS011;23904;52.322;10.232;2023-07-31T08:47:49;22.67;;;10.75;;
38089;SDS011;23904;52.322;10.232;2023-07-31T08:50:18;20.80;;;10.10;;
38089;SDS011;23904;52.322;10.232;2023-07-31T08:52:49;22.17;;;9.82;;
38089;SDS011;23904;52.322;10.232;2023-07-31T08:55:16;16.77;;;9.48;;
38089;SDS011;23904;52.322;10.232;2023-07-31T08:57:48;16.30;;;10.32;;
38089;SDS011;23904;52.322;10.232;2023-07-31T09:00:16;19.40;;;9.93;;
38089;SDS011;23904;52.322;10.232;2023-07-31T09:02:44;17.88;;;9.93;;
38089;SDS011;23904;52.322;10.232;2023-07-31T09:05:13;16.15;;;9.13;;
38089;SDS011;23904;52.322;10.232;2023-07-31T09:07:40;20.88;;;9.45;;
38089;SDS011;23904;52.322;10.232;2023-07-31T09:10:07;22.10;;;9.43;;
38089;SDS011;23904;52.322;10.232;2023-07-31T09:12:33;19.15;;;9.15;;
38089;SDS011;23904;52.322;10.232;2023-07-31T09:14:59;14.93;;;9.25;;
38089;SDS011;23904;52.322;10.232;2023-07-31T09:17:32;17.15;;;9.25;;
38089;SDS011;23904;52.322;10.232;2023-07-31T09:20:20;24.73;;;9.43;;
38089;SDS011;23904;52.322;10.232;2023-07-31T09:22:47;22.75;;;8.77;;
38089;SDS011;23904;52.322;10.232;2023-07-31T09:25:14;14.15;;;8.73;;
38089;SDS011;23904;52.322;10.232;2023-07-31T09:30:13;15.38;;;8.35;;
38089;SDS011;23904;52.322;10.232;2023-07-31T09:32:41;12.75;;;7.63;;
38089;SDS011;23904;52.322;10.232;2023-07-31T09:35:21;19.02;;;8.23;;
38089;SDS011;23904;52.322;10.232;2023-07-31T09:37:58;13.20;;;6.63;;
38089;SDS011;23904;52.322;10.232;2023-07-31T09:40:36;17.25;;;6.97;;
38089;SDS011;23904;52.322;10.232;2023-07-31T09:43:04;15.65;;;6.80;;
38089;SDS011;23904;52.322;10.232;2023-07-31T09:45:37;13.00;;;6.50;;
38089;SDS011;23904;52.322;10.232;2023-07-31T09:48:13;10.02;;;5.40;;
38089;SDS011;23904;52.322;10.232;2023-07-31T09:50:42;10.30;;;5.97;;
38089;SDS011;23904;52.322;10.232;2023-07-31T09:53:13;8.43;;;5.25;;
38089;SDS011;23904;52.322;10.232;2023-07-31T09:55:40;9.90;;;4.90;;
38089;SDS011;23904;52.322;10.232;2023-07-31T09:58:11;8.93;;;4.95;;
38089;SDS011;23904;52.322;10.232;2023-07-31T10:00:38;7.38;;;3.75;;
38089;SDS011;23904;52.322;10.232;2023-07-31T10:03:04;5.60;;;4.25;;
38089;SDS011;23904;52.322;10.232;2023-07-31T10:08:27;9.60;;;4.10;;
38089;SDS011;23904;52.322;10.232;2023-07-31T10:10:57;8.25;;;4.50;;
38089;SDS011;23904;52.322;10.232;2023-07-31T10:13:24;5.80;;;3.97;;
38089;SDS011;23904;52.322;10.232;2023-07-31T10:15:53;7.68;;;4.63;;
38089;SDS011;23904;52.322;10.232;2023-07-31T10:18:19;8.15;;;4.70;;
38089;SDS011;23904;52.322;10.232;2023-07-31T10:20:45;9.45;;;4.53;;
38089;SDS011;23904;52.322;10.232;2023-07-31T10:23:12;8.45;;;4.75;;
38089;SDS011;23904;52.322;10.232;2023-07-31T10:25:38;10.45;;;5.45;;
38089;SDS011;23904;52.322;10.232;2023-07-31T10:28:04;9.52;;;5.05;;
38089;SDS011;23904;52.322;10.232;2023-07-31T10:30:32;8.50;;;4.85;;
38089;SDS011;23904;52.322;10.232;2023-07-31T10:32:59;10.60;;;4.70;;
38089;SDS011;23904;52.322;10.232;2023-07-31T10:35:25;8.23;;;4.47;;
38089;SDS011;23904;52.322;10.232;2023-07-31T10:37:52;8.00;;;4.47;;
38089;SDS011;23904;52.322;10.232;2023-07-31T10:40:19;6.82;;;4.18;;
38089;SDS011;23904;52.322;10.232;2023-07-31T10:42:52;5.55;;;3.92;;
38089;SDS011;23904;52.322;10.232;2023-07-31T10:45:30;8.88;;;4.25;;
38089;SDS011;23904;52.322;10.232;2023-07-31T10:48:12;8.40;;;4.00;;
38089;SDS011;23904;52.322;10.232;2023-07-31T10:50:46;6.82;;;3.97;;
38089;SDS011;23904;52.322;10.232;2023-07-31T10:53:26;5.53;;;3.55;;
38089;SDS011;23904;52.322;10.232;2023-07-31T10:55:59;6.18;;;3.83;;
38089;SDS011;23904;52.322;10.232;2023-07-31T10:58:26;5.38;;;3.67;;
38089;SDS011;23904;52.322;10.232;2023-07-31T11:00:55;4.85;;;2.80;;
38089;SDS011;23904;52.322;10.232;2023-07-31T11:03:27;7.72;;;3.65;;
38089;SDS011;23904;52.322;10.232;2023-07-31T11:06:09;9.80;;;3.22;;
38089;SDS011;23904;52.322;10.232;2023-07-31T11:08:40;7.22;;;3.47;;
38089;SDS011;23904;52.322;10.232;2023-07-31T11:11:09;7.97;;;3.42;;
38089;SDS011;23904;52.322;10.232;2023-07-31T11:13:46;6.47;;;3.72;;
38089;SDS011;23904;52.322;10.232;2023-07-31T11:16:20;7.03;;;4.15;;
38089;SDS011;23904;52.322;10.232;2023-07-31T11:18:50;6.78;;;3.55;;
38089;SDS011;23904;52.322;10.232;2023-07-31T11:21:21;7.13;;;3.65;;
38089;SDS011;23904;52.322;10.232;2023-07-31T11:23:51;5.80;;;3.42;;
38089;SDS011;23904;52.322;10.232;2023-07-31T11:26:22;7.15;;;3.25;;
38089;SDS011;23904;52.322;10.232;2023-07-31T11:28:49;5.40;;;3.25;;
38089;SDS011;23904;52.322;10.232;2023-07-31T11:31:16;9.00;;;3.35;;
38089;SDS011;23904;52.322;10.232;2023-07-31T11:33:43;5.50;;;3.33;;
38089;SDS011;23904;52.322;10.232;2023-07-31T11:36:18;8.48;;;3.67;;
38089;SDS011;23904;52.322;10.232;2023-07-31T11:38:45;6.63;;;3.25;;
38089;SDS011;23904;52.322;10.232;2023-07-31T11:41:13;6.45;;;3.35;;
38089;SDS011;23904;52.322;10.232;2023-07-31T11:43:41;5.47;;;2.92;;
38089;SDS011;23904;52.322;10.232;2023-07-31T11:46:06;7.85;;;3.47;;
38089;SDS011;23904;52.322;10.232;2023-07-31T11:48:33;5.70;;;3.22;;
38089;SDS011;23904;52.322;10.232;2023-07-31T11:51:02;6.05;;;3.33;;
38089;SDS011;23904;52.322;10.232;2023-07-31T11:53:31;8.27;;;3.35;;
38089;SDS011;23904;52.322;10.232;2023-07-31T11:56:10;5.88;;;3.30;;
38089;SDS011;23904;52.322;10.232;2023-07-31T11:58:38;4.68;;;3.15;;
38089;SDS011;23904;52.322;10.232;2023-07-31T12:01:05;7.38;;;2.97;;
38089;SDS011;23904;52.322;10.232;2023-07-31T12:03:32;8.45;;;3.10;;
38089;SDS011;23904;52.322;10.232;2023-07-31T12:05:59;7.35;;;2.95;;
38089;SDS011;23904;52.322;10.232;2023-07-31T12:08:25;3.28;;;2.15;;
38089;SDS011;23904;52.322;10.232;2023-07-31T12:10:51;6.53;;;2.97;;
38089;SDS011;23904;52.322;10.232;2023-07-31T12:13:22;7.38;;;3.25;;
38089;SDS011;23904;52.322;10.232;2023-07-31T12:15:58;4.37;;;2.50;;
38089;SDS011;23904;52.322;10.232;2023-07-31T12:18:27;3.88;;;2.50;;
38089;SDS011;23904;52.322;10.232;2023-07-31T12:20:55;3.83;;;2.17;;
38089;SDS011;23904;52.322;10.232;2023-07-31T12:23:27;4.80;;;2.25;;
38089;SDS011;23904;52.322;10.232;2023-07-31T12:28:35;6.30;;;2.05;;
38089;SDS011;23904;52.322;10.232;2023-07-31T12:31:03;4.15;;;2.20;;
38089;SDS011;23904;52.322;10.232;2023-07-31T12:33:36;3.20;;;2.13;;
38089;SDS011;23904;52.322;10.232;2023-07-31T12:36:06;6.25;;;2.30;;
38089;SDS011;23904;52.322;10.232;2023-07-31T12:38:38;4.85;;;2.22;;
38089;SDS011;23904;52.322;10.232;2023-07-31T12:41:03;3.72;;;2.08;;
38089;SDS011;23904;52.322;10.232;2023-07-31T12:43:31;3.13;;;1.90;;
38089;SDS011;23904;52.322;10.232;2023-07-31T12:45:57;4.38;;;2.28;;
38089;SDS011;23904;52.322;10.232;2023-07-31T12:48:22;4.03;;;1.98;;
38089;SDS011;23904;52.322;10.232;2023-07-31T12:50:48;4.22;;;2.08;;
38089;SDS011;23904;52.322;10.232;2023-07-31T12:53:14;4.85;;;2.45;;
38089;SDS011;23904;52.322;10.232;2023-07-31T12:55:40;3.50;;;1.95;;
38089;SDS011;23904;52.322;10.232;2023-07-31T12:58:06;3.88;;;2.00;;
38089;SDS011;23904;52.322;10.232;2023-07-31T13:00:32;4.13;;;2.20;;
38089;SDS011;23904;52.322;10.232;2023-07-31T13:02:57;4.43;;;2.10;;
38089;SDS011;23904;52.322;10.232;2023-07-31T13:05:25;4.82;;;2.42;;
38089;SDS011;23904;52.322;10.232;2023-07-31T13:07:51;2.97;;;1.80;;
38089;SDS011;23904;52.322;10.232;2023-07-31T13:10:16;4.38;;;1.77;;
38089;SDS011;23904;52.322;10.232;2023-07-31T13:12:42;2.83;;;1.52;;
38089;SDS011;23904;52.322;10.232;2023-07-31T13:15:08;5.60;;;1.60;;
38089;SDS011;23904;52.322;10.232;2023-07-31T13:17:33;4.43;;;1.55;;
38089;SDS011;23904;52.322;10.232;2023-07-31T13:20:00;4.18;;;2.22;;
38089;SDS011;23904;52.322;10.232;2023-07-31T13:22:26;2.53;;;1.55;;
38089;SDS011;23904;52.322;10.232;2023-07-31T13:24:51;3.05;;;1.58;;
38089;SDS011;23904;52.322;10.232;2023-07-31T13:27:17;2.38;;;1.27;;
38089;SDS011;23904;52.322;10.232;2023-07-31T13:29:44;6.40;;;1.30;;
38089;SDS011;23904;52.322;10.232;2023-07-31T13:32:10;2.35;;;1.30;;
38089;SDS011;23904;52.322;10.232;2023-07-31T13:34:36;2.42;;;1.38;;
38089;SDS011;23904;52.322;10.232;2023-07-31T13:37:01;2.53;;;1.08;;
38089;SDS011;23904;52.322;10.232;2023-07-31T13:39:27;1.65;;;0.93;;
38089;SDS011;23904;52.322;10.232;2023-07-31T13:41:53;3.47;;;1.38;;
38089;SDS011;23904;52.322;10.232;2023-07-31T13:44:19;4.20;;;1.05;;
38089;SDS011;23904;52.322;10.232;2023-07-31T13:46:44;3.22;;;1.20;;
38089;SDS011;23904;52.322;10.232;2023-07-31T13:49:10;2.17;;;1.15;;
38089;SDS011;23904;52.322;10.232;2023-07-31T13:51:35;2.47;;;1.10;;
38089;SDS011;23904;52.322;10.232;2023-07-31T13:54:01;2.08;;;0.98;;
38089;SDS011;23904;52.322;10.232;2023-07-31T13:56:26;3.15;;;0.90;;
38089;SDS011;23904;52.322;10.232;2023-07-31T13:58:52;1.73;;;0.70;;
38089;SDS011;23904;52.322;10.232;2023-07-31T14:01:18;1.55;;;0.88;;
38089;SDS011;23904;52.322;10.232;2023-07-31T14:03:43;1.20;;;0.80;;
38089;SDS011;23904;52.322;10.232;2023-07-31T14:06:09;1.15;;;0.75;;
38089;SDS011;23904;52.322;10.232;2023-07-31T14:08:34;3.30;;;0.68;;
38089;SDS011;23904;52.322;10.232;2023-07-31T14:11:00;1.00;;;0.43;;
38089;SDS011;23904;52.322;10.232;2023-07-31T14:13:25;1.25;;;0.70;;
38089;SDS011;23904;52.322;10.232;2023-07-31T14:15:51;4.10;;;0.70;;
38089;SDS011;23904;52.322;10.232;2023-07-31T14:18:18;5.15;;;1.25;;
38089;SDS011;23904;52.322;10.232;2023-07-31T14:20:44;1.20;;;0.70;;
38089;SDS011;23904;52.322;10.232;2023-07-31T14:23:09;3.45;;;0.70;;
38089;SDS011;23904;52.322;10.232;2023-07-31T14:25:35;1.58;;;0.85;;
38089;SDS011;23904;52.322;10.232;2023-07-31T14:28:00;1.35;;;0.70;;
38089;SDS011;23904;52.322;10.232;2023-07-31T14:30:26;1.27;;;0.75;;
38089;SDS011;23904;52.322;10.232;2023-07-31T14:32:51;3.03;;;0.77;;
38089;SDS011;23904;52.322;10.232;2023-07-31T14:35:17;2.65;;;0.80;;
38089;SDS011;23904;52.322;10.232;2023-07-31T14:37:44;3.78;;;0.80;;
38089;SDS011;23904;52.322;10.232;2023-07-31T14:40:10;0.85;;;0.70;;
38089;SDS011;23904;52.322;10.232;2023-07-31T14:42:38;1.50;;;0.88;;